sensor_id;sensor_type;location;lat;lon;timestamp;P1;durP1;ratioP1;P2;durP2;ratioP2
46723;SDS011;32463;48.298;11.620;2023-06-24T00:00:19;7.10;;;5.45;;
46723;SDS011;32463;48.298;11.620;2023-06-24T00:02:45;7.13;;;4.97;;
46723;SDS011;32463;48.298;11.620;2023-06-24T00:05:12;8.02;;;5.35;;
46723;SDS011;32463;48.298;11.620;2023-06-24T00:07:38;6.85;;;5.13;;
46723;SDS011;32463;48.298;11.620;2023-06-24T00:10:10;7.20;;;5.28;;
46723;SDS011;32463;48.298;11.620;2023-06-24T00:12:40;8.27;;;5.72;;
46723;SDS011;32463;48.298;11.620;2023-06-24T00:15:07;8.80;;;5.28;;
46723;SDS011;32463;48.298;11.620;2023-06-24T00:17:35;7.90;;;5.95;;
46723;SDS011;32463;48.298;11.620;2023-06-24T00:20:02;9.35;;;5.63;;
46723;SDS011;32463;48.298;11.620;2023-06-24T00:22:32;9.52;;;5.90;;
46723;SDS011;32463;48.298;11.620;2023-06-24T00:24:58;8.93;;;5.13;;
46723;SDS011;32463;48.298;11.620;2023-06-24T00:27:25;10.68;;;5.75;;
46723;SDS011;32463;48.298;11.620;2023-06-24T00:29:52;8.00;;;5.80;;
46723;SDS011;32463;48.298;11.620;2023-06-24T00:32:18;8.27;;;5.97;;
46723;SDS011;32463;48.298;11.620;2023-06-24T00:34:44;7.95;;;5.60;;
46723;SDS011;32463;48.298;11.620;2023-06-24T00:37:12;8.15;;;6.07;;
46723;SDS011;32463;48.298;11.620;2023-06-24T00:39:39;8.75;;;5.90;;
46723;SDS011;32463;48.298;11.620;2023-06-24T00:42:05;7.07;;;5.45;;
46723;SDS011;32463;48.298;11.620;2023-06-24T00:44:32;8.10;;;5.38;;
46723;SDS011;32463;48.298;11.620;2023-06-24T00:46:58;7.18;;;5.43;;
46723;SDS011;32463;48.298;11.620;2023-06-24T00:49:27;8.50;;;5.75;;
46723;SDS011;32463;48.298;11.620;2023-06-24T00:51:53;10.55;;;5.63;;
46723;SDS011;32463;48.298;11.620;2023-06-24T00:54:20;8.23;;;5.55;;
46723;SDS011;32463;48.298;11.620;2023-06-24T00:56:47;7.15;;;5.50;;
46723;SDS011;32463;48.298;11.620;2023-06-24T00:59:15;7.88;;;5.70;;
46723;SDS011;32463;48.298;11.620;2023-06-24T01:01:42;8.90;;;5.82;;
46723;SDS011;32463;48.298;11.620;2023-06-24T01:04:10;6.72;;;5.05;;
46723;SDS011;32463;48.298;11.620;2023-06-24T01:06:37;6.80;;;5.25;;
46723;SDS011;32463;48.298;11.620;2023-06-24T01:09:08;7.40;;;5.38;;
46723;SDS011;32463;48.298;11.620;2023-06-24T01:11:36;6.60;;;5.30;;
46723;SDS011;32463;48.298;11.620;2023-06-24T01:14:02;9.27;;;5.85;;
46723;SDS011;32463;48.298;11.620;2023-06-24T01:22:31;7.82;;;5.50;;
46723;SDS011;32463;48.298;11.620;2023-06-24T01:28:23;7.18;;;5.38;;
46723;SDS011;32463;48.298;11.620;2023-06-24T01:33:56;9.00;;;5.63;;
46723;SDS011;32463;48.298;11.620;2023-06-24T01:36:28;9.10;;;5.45;;
46723;SDS011;32463;48.298;11.620;2023-06-24T01:39:03;14.52;;;6.13;;
46723;SDS011;32463;48.298;11.620;2023-06-24T01:41:44;9.55;;;5.65;;
46723;SDS011;32463;48.298;11.620;2023-06-24T01:44:16;8.18;;;5.40;;
46723;SDS011;32463;48.298;11.620;2023-06-24T01:46:45;8.45;;;5.93;;
46723;SDS011;32463;48.298;11.620;2023-06-24T01:49:15;9.13;;;5.85;;
46723;SDS011;32463;48.298;11.620;2023-06-24T01:51:42;7.32;;;5.70;;
46723;SDS011;32463;48.298;11.620;2023-06-24T01:54:11;8.48;;;5.95;;
46723;SDS011;32463;48.298;11.620;2023-06-24T01:56:42;8.77;;;6.47;;
46723;SDS011;32463;48.298;11.620;2023-06-24T01:59:10;9.73;;;6.25;;
46723;SDS011;32463;48.298;11.620;2023-06-24T02:01:37;9.70;;;6.47;;
46723;SDS011;32463;48.298;11.620;2023-06-24T02:04:05;10.38;;;6.70;;
46723;SDS011;32463;48.298;11.620;2023-06-24T02:06:34;9.30;;;6.28;;
46723;SDS011;32463;48.298;11.620;2023-06-24T02:09:03;12.57;;;7.25;;
46723;SDS011;32463;48.298;11.620;2023-06-24T02:11:31;9.13;;;6.38;;
46723;SDS011;32463;48.298;11.620;2023-06-24T02:14:01;10.00;;;6.68;;
46723;SDS011;32463;48.298;11.620;2023-06-24T02:16:29;11.32;;;6.50;;
46723;SDS011;32463;48.298;11.620;2023-06-24T02:18:57;9.43;;;6.10;;
46723;SDS011;32463;48.298;11.620;2023-06-24T02:21:25;10.38;;;6.03;;
46723;SDS011;32463;48.298;11.620;2023-06-24T02:23:54;8.63;;;6.68;;
46723;SDS011;32463;48.298;11.620;2023-06-24T02:26:22;11.07;;;6.43;;
46723;SDS011;32463;48.298;11.620;2023-06-24T02:28:50;9.40;;;6.78;;
46723;SDS011;32463;48.298;11.620;2023-06-24T02:31:19;7.22;;;5.93;;
46723;SDS011;32463;48.298;11.620;2023-06-24T02:33:45;10.35;;;6.35;;
46723;SDS011;32463;48.298;11.620;2023-06-24T02:36:12;8.35;;;6.07;;
46723;SDS011;32463;48.298;11.620;2023-06-24T02:38:38;8.77;;;6.15;;
46723;SDS011;32463;48.298;11.620;2023-06-24T02:41:05;8.55;;;6.07;;
46723;SDS011;32463;48.298;11.620;2023-06-24T02:43:32;8.38;;;6.28;;
46723;SDS011;32463;48.298;11.620;2023-06-24T02:46:01;7.85;;;5.70;;
46723;SDS011;32463;48.298;11.620;2023-06-24T02:48:28;8.68;;;5.72;;
46723;SDS011;32463;48.298;11.620;2023-06-24T02:50:57;7.43;;;5.68;;
46723;SDS011;32463;48.298;11.620;2023-06-24T02:53:25;8.00;;;5.68;;
46723;SDS011;32463;48.298;11.620;2023-06-24T02:55:52;9.07;;;5.53;;
46723;SDS011;32463;48.298;11.620;2023-06-24T02:58:20;8.93;;;5.63;;
46723;SDS011;32463;48.298;11.620;2023-06-24T03:00:47;7.95;;;5.93;;
46723;SDS011;32463;48.298;11.620;2023-06-24T03:03:14;6.18;;;5.10;;
46723;SDS011;32463;48.298;11.620;2023-06-24T03:05:41;8.55;;;5.28;;
46723;SDS011;32463;48.298;11.620;2023-06-24T03:08:09;6.28;;;5.30;;
46723;SDS011;32463;48.298;11.620;2023-06-24T03:10:36;7.75;;;6.03;;
46723;SDS011;32463;48.298;11.620;2023-06-24T03:13:03;7.15;;;5.80;;
46723;SDS011;32463;48.298;11.620;2023-06-24T03:15:29;8.90;;;5.97;;
46723;SDS011;32463;48.298;11.620;2023-06-24T03:17:57;8.90;;;5.63;;
46723;SDS011;32463;48.298;11.620;2023-06-24T03:20:23;8.52;;;6.10;;
46723;SDS011;32463;48.298;11.620;2023-06-24T03:22:50;13.85;;;6.30;;
46723;SDS011;32463;48.298;11.620;2023-06-24T03:25:18;7.30;;;5.70;;
46723;SDS011;32463;48.298;11.620;2023-06-24T03:27:44;9.82;;;5.90;;
46723;SDS011;32463;48.298;11.620;2023-06-24T03:30:11;8.40;;;6.07;;
46723;SDS011;32463;48.298;11.620;2023-06-24T03:32:39;6.88;;;5.40;;
46723;SDS011;32463;48.298;11.620;2023-06-24T03:35:11;7.90;;;5.75;;
46723;SDS011;32463;48.298;11.620;2023-06-24T03:37:38;7.13;;;5.68;;
46723;SDS011;32463;48.298;11.620;2023-06-24T03:40:05;9.88;;;5.60;;
46723;SDS011;32463;48.298;11.620;2023-06-24T03:42:33;8.43;;;5.68;;
46723;SDS011;32463;48.298;11.620;2023-06-24T03:44:59;8.85;;;5.28;;
46723;SDS011;32463;48.298;11.620;2023-06-24T03:47:25;7.45;;;5.10;;
46723;SDS011;32463;48.298;11.620;2023-06-24T03:49:52;6.70;;;5.25;;
46723;SDS011;32463;48.298;11.620;2023-06-24T03:52:18;7.72;;;5.28;;
46723;SDS011;32463;48.298;11.620;2023-06-24T03:54:44;6.03;;;4.85;;
46723;SDS011;32463;48.298;11.620;2023-06-24T03:57:12;7.18;;;4.93;;
46723;SDS011;32463;48.298;11.620;2023-06-24T03:59:38;7.65;;;5.10;;
46723;SDS011;32463;48.298;11.620;2023-06-24T04:02:05;6.88;;;5.15;;
46723;SDS011;32463;48.298;11.620;2023-06-24T04:04:33;6.63;;;5.15;;
46723;SDS011;32463;48.298;11.620;2023-06-24T04:06:59;8.75;;;4.88;;
46723;SDS011;32463;48.298;11.620;2023-06-24T04:09:26;7.03;;;5.03;;
46723;SDS011;32463;48.298;11.620;2023-06-24T04:11:52;8.57;;;4.80;;
46723;SDS011;32463;48.298;11.620;2023-06-24T04:14:19;6.45;;;4.88;;
46723;SDS011;32463;48.298;11.620;2023-06-24T04:16:45;7.05;;;5.00;;
46723;SDS011;32463;48.298;11.620;2023-06-24T04:19:11;6.35;;;4.60;;
46723;SDS011;32463;48.298;11.620;2023-06-24T04:21:39;6.90;;;5.05;;
46723;SDS011;32463;48.298;11.620;2023-06-24T04:24:05;6.72;;;4.90;;
46723;SDS011;32463;48.298;11.620;2023-06-24T04:26:32;6.85;;;4.82;;
46723;SDS011;32463;48.298;11.620;2023-06-24T04:28:58;6.68;;;4.88;;
46723;SDS011;32463;48.298;11.620;2023-06-24T04:31:24;5.72;;;4.10;;
46723;SDS011;32463;48.298;11.620;2023-06-24T04:33:53;7.13;;;4.57;;
46723;SDS011;32463;48.298;11.620;2023-06-24T04:36:19;7.13;;;4.82;;
46723;SDS011;32463;48.298;11.620;2023-06-24T04:38:45;6.78;;;4.68;;
46723;SDS011;32463;48.298;11.620;2023-06-24T04:41:12;6.50;;;4.60;;
46723;SDS011;32463;48.298;11.620;2023-06-24T04:43:38;7.65;;;4.47;;
46723;SDS011;32463;48.298;11.620;2023-06-24T04:46:05;6.22;;;4.43;;
46723;SDS011;32463;48.298;11.620;2023-06-24T04:48:31;7.18;;;4.63;;
46723;SDS011;32463;48.298;11.620;2023-06-24T04:50:57;8.65;;;4.70;;
46723;SDS011;32463;48.298;11.620;2023-06-24T04:53:24;7.18;;;4.80;;
46723;SDS011;32463;48.298;11.620;2023-06-24T04:55:50;5.75;;;4.13;;
46723;SDS011;32463;48.298;11.620;2023-06-24T04:58:17;6.13;;;3.80;;
46723;SDS011;32463;48.298;11.620;2023-06-24T05:00:43;5.32;;;4.25;;
46723;SDS011;32463;48.298;11.620;2023-06-24T05:03:10;5.40;;;4.20;;
46723;SDS011;32463;48.298;11.620;2023-06-24T05:05:36;6.82;;;4.10;;
46723;SDS011;32463;48.298;11.620;2023-06-24T05:08:02;5.93;;;4.50;;
46723;SDS011;32463;48.298;11.620;2023-06-24T05:10:30;6.82;;;4.35;;
46723;SDS011;32463;48.298;11.620;2023-06-24T05:12:56;5.65;;;4.03;;
46723;SDS011;32463;48.298;11.620;2023-06-24T05:15:23;6.18;;;4.32;;
46723;SDS011;32463;48.298;11.620;2023-06-24T05:17:49;8.02;;;4.80;;
46723;SDS011;32463;48.298;11.620;2023-06-24T05:20:15;5.97;;;4.10;;
46723;SDS011;32463;48.298;11.620;2023-06-24T05:22:42;5.50;;;4.05;;
46723;SDS011;32463;48.298;11.620;2023-06-24T05:25:09;6.95;;;4.07;;
46723;SDS011;32463;48.298;11.620;2023-06-24T05:27:35;5.43;;;4.03;;
46723;SDS011;32463;48.298;11.620;2023-06-24T05:30:02;7.00;;;4.18;;
46723;SDS011;32463;48.298;11.620;2023-06-24T05:32:28;6.28;;;3.72;;
46723;SDS011;32463;48.298;11.620;2023-06-24T05:34:55;5.05;;;4.05;;
46723;SDS011;32463;48.298;11.620;2023-06-24T05:37:21;6.18;;;3.90;;
46723;SDS011;32463;48.298;11.620;2023-06-24T05:39:48;6.22;;;3.90;;
46723;SDS011;32463;48.298;11.620;2023-06-24T05:42:14;6.43;;;3.85;;
46723;SDS011;32463;48.298;11.620;2023-06-24T05:44:41;5.38;;;3.90;;
46723;SDS011;32463;48.298;11.620;2023-06-24T05:47:08;5.00;;;3.80;;
46723;SDS011;32463;48.298;11.620;2023-06-24T05:49:34;5.50;;;3.72;;
46723;SDS011;32463;48.298;11.620;2023-06-24T05:52:00;6.05;;;4.10;;
46723;SDS011;32463;48.298;11.620;2023-06-24T05:54:27;5.35;;;3.97;;
46723;SDS011;32463;48.298;11.620;2023-06-24T05:56:53;5.60;;;3.83;;
46723;SDS011;32463;48.298;11.620;2023-06-24T05:59:20;5.57;;;4.05;;
46723;SDS011;32463;48.298;11.620;2023-06-24T06:01:46;7.55;;;4.38;;
46723;SDS011;32463;48.298;11.620;2023-06-24T06:04:13;6.03;;;4.30;;
46723;SDS011;32463;48.298;11.620;2023-06-24T06:06:39;6.05;;;4.10;;
46723;SDS011;32463;48.298;11.620;2023-06-24T06:09:05;5.88;;;3.75;;
46723;SDS011;32463;48.298;11.620;2023-06-24T06:11:32;5.65;;;4.00;;
46723;SDS011;32463;48.298;11.620;2023-06-24T06:13:58;5.43;;;3.80;;
46723;SDS011;32463;48.298;11.620;2023-06-24T06:16:25;6.40;;;4.10;;
46723;SDS011;32463;48.298;11.620;2023-06-24T06:18:53;5.40;;;3.97;;
46723;SDS011;32463;48.298;11.620;2023-06-24T06:21:19;5.18;;;3.97;;
46723;SDS011;32463;48.298;11.620;2023-06-24T06:23:46;5.45;;;4.10;;
46723;SDS011;32463;48.298;11.620;2023-06-24T06:26:13;7.57;;;3.85;;
46723;SDS011;32463;48.298;11.620;2023-06-24T06:28:39;6.03;;;4.28;;
46723;SDS011;32463;48.298;11.620;2023-06-24T06:31:06;5.97;;;3.90;;
46723;SDS011;32463;48.298;11.620;2023-06-24T06:33:32;6.68;;;3.50;;
46723;SDS011;32463;48.298;11.620;2023-06-24T06:35:58;5.20;;;3.45;;
46723;SDS011;32463;48.298;11.620;2023-06-24T06:38:25;4.70;;;3.30;;
46723;SDS011;32463;48.298;11.620;2023-06-24T06:40:51;6.28;;;3.05;;
46723;SDS011;32463;48.298;11.620;2023-06-24T06:43:18;4.50;;;3.10;;
46723;SDS011;32463;48.298;11.620;2023-06-24T06:45:44;4.00;;;3.13;;
46723;SDS011;32463;48.298;11.620;2023-06-24T06:48:11;5.10;;;3.50;;
46723;SDS011;32463;48.298;11.620;2023-06-24T06:50:37;5.55;;;3.75;;
46723;SDS011;32463;48.298;11.620;2023-06-24T06:53:04;5.20;;;2.85;;
46723;SDS011;32463;48.298;11.620;2023-06-24T06:55:30;4.03;;;3.00;;
46723;SDS011;32463;48.298;11.620;2023-06-24T06:57:56;6.78;;;3.28;;
46723;SDS011;32463;48.298;11.620;2023-06-24T07:00:23;7.35;;;3.10;;
46723;SDS011;32463;48.298;11.620;2023-06-24T07:02:49;7.15;;;3.50;;
46723;SDS011;32463;48.298;11.620;2023-06-24T07:05:16;5.50;;;3.33;;
46723;SDS011;32463;48.298;11.620;2023-06-24T07:07:42;5.65;;;3.03;;
46723;SDS011;32463;48.298;11.620;2023-06-24T07:10:10;4.70;;;3.10;;
46723;SDS011;32463;48.298;11.620;2023-06-24T07:12:37;4.05;;;2.80;;
46723;SDS011;32463;48.298;11.620;2023-06-24T07:15:03;4.55;;;3.10;;
46723;SDS011;32463;48.298;11.620;2023-06-24T07:17:31;5.38;;;3.60;;
46723;SDS011;32463;48.298;11.620;2023-06-24T07:19:57;4.57;;;2.92;;
46723;SDS011;32463;48.298;11.620;2023-06-24T07:22:23;5.43;;;3.40;;
46723;SDS011;32463;48.298;11.620;2023-06-24T07:24:52;5.45;;;2.78;;
46723;SDS011;32463;48.298;11.620;2023-06-24T07:27:21;5.80;;;2.90;;
46723;SDS011;32463;48.298;11.620;2023-06-24T07:29:47;4.18;;;2.92;;
46723;SDS011;32463;48.298;11.620;2023-06-24T07:32:14;5.05;;;3.08;;
46723;SDS011;32463;48.298;11.620;2023-06-24T07:34:40;3.88;;;2.53;;
46723;SDS011;32463;48.298;11.620;2023-06-24T07:37:07;4.15;;;2.28;;
46723;SDS011;32463;48.298;11.620;2023-06-24T07:39:33;3.72;;;2.33;;
46723;SDS011;32463;48.298;11.620;2023-06-24T07:42:00;5.00;;;2.50;;
46723;SDS011;32463;48.298;11.620;2023-06-24T07:44:26;5.18;;;2.53;;
46723;SDS011;32463;48.298;11.620;2023-06-24T07:46:52;4.55;;;2.78;;
46723;SDS011;32463;48.298;11.620;2023-06-24T07:49:19;4.35;;;2.90;;
46723;SDS011;32463;48.298;11.620;2023-06-24T07:51:45;8.15;;;5.60;;
46723;SDS011;32463;48.298;11.620;2023-06-24T07:54:12;4.90;;;3.28;;
46723;SDS011;32463;48.298;11.620;2023-06-24T07:56:38;6.47;;;3.20;;
46723;SDS011;32463;48.298;11.620;2023-06-24T07:59:04;6.00;;;3.00;;
46723;SDS011;32463;48.298;11.620;2023-06-24T08:01:31;3.97;;;2.97;;
46723;SDS011;32463;48.298;11.620;2023-06-24T08:04:00;6.15;;;3.45;;
46723;SDS011;32463;48.298;11.620;2023-06-24T08:06:27;5.93;;;3.08;;
46723;SDS011;32463;48.298;11.620;2023-06-24T08:08:53;4.75;;;2.90;;
46723;SDS011;32463;48.298;11.620;2023-06-24T08:11:19;4.50;;;3.00;;
46723;SDS011;32463;48.298;11.620;2023-06-24T08:13:47;6.15;;;3.00;;
46723;SDS011;32463;48.298;11.620;2023-06-24T08:16:15;4.00;;;2.20;;
46723;SDS011;32463;48.298;11.620;2023-06-24T08:18:42;3.92;;;2.42;;
46723;SDS011;32463;48.298;11.620;2023-06-24T08:21:08;3.50;;;2.60;;
46723;SDS011;32463;48.298;11.620;2023-06-24T08:23:35;3.25;;;2.20;;
46723;SDS011;32463;48.298;11.620;2023-06-24T08:26:01;4.80;;;2.88;;
46723;SDS011;32463;48.298;11.620;2023-06-24T08:28:28;5.03;;;3.35;;
46723;SDS011;32463;48.298;11.620;2023-06-24T08:30:54;6.35;;;3.22;;
46723;SDS011;32463;48.298;11.620;2023-06-24T08:33:20;23.27;;;17.90;;
46723;SDS011;32463;48.298;11.620;2023-06-24T08:35:47;12.63;;;9.57;;
46723;SDS011;32463;48.298;11.620;2023-06-24T08:38:13;5.18;;;3.40;;
46723;SDS011;32463;48.298;11.620;2023-06-24T08:40:40;5.10;;;3.92;;
46723;SDS011;32463;48.298;11.620;2023-06-24T08:43:08;6.28;;;3.38;;
46723;SDS011;32463;48.298;11.620;2023-06-24T08:45:35;4.30;;;2.90;;
46723;SDS011;32463;48.298;11.620;2023-06-24T08:48:03;5.05;;;3.20;;
46723;SDS011;32463;48.298;11.620;2023-06-24T08:50:35;6.80;;;3.90;;
46723;SDS011;32463;48.298;11.620;2023-06-24T08:53:03;6.07;;;3.38;;
46723;SDS011;32463;48.298;11.620;2023-06-24T08:55:32;4.82;;;3.35;;
46723;SDS011;32463;48.298;11.620;2023-06-24T08:58:05;4.80;;;3.42;;
46723;SDS011;32463;48.298;11.620;2023-06-24T09:00:32;4.55;;;3.53;;
46723;SDS011;32463;48.298;11.620;2023-06-24T09:03:00;6.32;;;3.53;;
46723;SDS011;32463;48.298;11.620;2023-06-24T09:05:26;5.00;;;3.20;;
46723;SDS011;32463;48.298;11.620;2023-06-24T09:07:53;5.47;;;3.72;;
46723;SDS011;32463;48.298;11.620;2023-06-24T09:13:20;4.93;;;3.50;;
46723;SDS011;32463;48.298;11.620;2023-06-24T09:15:48;4.53;;;3.63;;
46723;SDS011;32463;48.298;11.620;2023-06-24T09:18:14;3.67;;;2.92;;
46723;SDS011;32463;48.298;11.620;2023-06-24T09:20:42;6.32;;;3.58;;
46723;SDS011;32463;48.298;11.620;2023-06-24T09:23:10;6.22;;;3.75;;
46723;SDS011;32463;48.298;11.620;2023-06-24T09:25:37;7.20;;;4.00;;
46723;SDS011;32463;48.298;11.620;2023-06-24T09:28:04;5.55;;;3.80;;
46723;SDS011;32463;48.298;11.620;2023-06-24T09:30:30;5.13;;;4.28;;
46723;SDS011;32463;48.298;11.620;2023-06-24T09:32:57;5.68;;;4.10;;
46723;SDS011;32463;48.298;11.620;2023-06-24T09:35:24;4.93;;;3.88;;
46723;SDS011;32463;48.298;11.620;2023-06-24T09:37:52;5.95;;;3.40;;
46723;SDS011;32463;48.298;11.620;2023-06-24T09:40:19;4.00;;;2.83;;
46723;SDS011;32463;48.298;11.620;2023-06-24T09:42:52;6.22;;;3.65;;
46723;SDS011;32463;48.298;11.620;2023-06-24T09:45:30;5.20;;;3.60;;
46723;SDS011;32463;48.298;11.620;2023-06-24T09:47:57;4.63;;;3.53;;
46723;SDS011;32463;48.298;11.620;2023-06-24T09:50:24;6.38;;;3.60;;
46723;SDS011;32463;48.298;11.620;2023-06-24T09:52:50;5.10;;;3.15;;
46723;SDS011;32463;48.298;11.620;2023-06-24T09:55:18;5.25;;;3.42;;
46723;SDS011;32463;48.298;11.620;2023-06-24T09:57:45;5.65;;;3.90;;
46723;SDS011;32463;48.298;11.620;2023-06-24T10:00:13;4.90;;;3.45;;
46723;SDS011;32463;48.298;11.620;2023-06-24T10:02:43;5.03;;;3.80;;
46723;SDS011;32463;48.298;11.620;2023-06-24T10:05:11;7.50;;;3.63;;
46723;SDS011;32463;48.298;11.620;2023-06-24T10:07:39;5.07;;;3.60;;
46723;SDS011;32463;48.298;11.620;2023-06-24T10:10:07;5.45;;;3.47;;
46723;SDS011;32463;48.298;11.620;2023-06-24T10:12:34;4.30;;;3.53;;
46723;SDS011;32463;48.298;11.620;2023-06-24T10:15:01;4.50;;;3.35;;
46723;SDS011;32463;48.298;11.620;2023-06-24T10:17:29;5.13;;;3.60;;
46723;SDS011;32463;48.298;11.620;2023-06-24T10:19:56;5.38;;;3.30;;
46723;SDS011;32463;48.298;11.620;2023-06-24T10:22:22;4.70;;;3.30;;
46723;SDS011;32463;48.298;11.620;2023-06-24T10:24:51;4.18;;;3.38;;
46723;SDS011;32463;48.298;11.620;2023-06-24T10:27:19;5.20;;;3.13;;
46723;SDS011;32463;48.298;11.620;2023-06-24T10:29:48;4.32;;;3.17;;
46723;SDS011;32463;48.298;11.620;2023-06-24T10:32:17;4.72;;;3.08;;
46723;SDS011;32463;48.298;11.620;2023-06-24T10:34:45;4.50;;;3.08;;
46723;SDS011;32463;48.298;11.620;2023-06-24T10:39:52;4.28;;;3.15;;
46723;SDS011;32463;48.298;11.620;2023-06-24T10:42:29;3.65;;;2.85;;
46723;SDS011;32463;48.298;11.620;2023-06-24T10:45:12;4.22;;;3.00;;
46723;SDS011;32463;48.298;11.620;2023-06-24T10:47:40;7.07;;;3.00;;
46723;SDS011;32463;48.298;11.620;2023-06-24T10:50:19;4.40;;;3.22;;
46723;SDS011;32463;48.298;11.620;2023-06-24T10:52:47;5.57;;;3.45;;
46723;SDS011;32463;48.298;11.620;2023-06-24T10:55:15;4.15;;;3.35;;
46723;SDS011;32463;48.298;11.620;2023-06-24T10:57:43;5.00;;;3.50;;
46723;SDS011;32463;48.298;11.620;2023-06-24T11:00:11;5.63;;;4.22;;
46723;SDS011;32463;48.298;11.620;2023-06-24T11:02:38;6.00;;;3.90;;
46723;SDS011;32463;48.298;11.620;2023-06-24T11:05:05;4.40;;;3.35;;
46723;SDS011;32463;48.298;11.620;2023-06-24T11:07:32;5.80;;;3.80;;
46723;SDS011;32463;48.298;11.620;2023-06-24T11:10:10;4.47;;;3.45;;
46723;SDS011;32463;48.298;11.620;2023-06-24T11:12:39;6.07;;;3.50;;
46723;SDS011;32463;48.298;11.620;2023-06-24T11:15:07;4.75;;;3.45;;
46723;SDS011;32463;48.298;11.620;2023-06-24T11:17:34;5.50;;;3.83;;
46723;SDS011;32463;48.298;11.620;2023-06-24T11:20:02;4.93;;;3.38;;
46723;SDS011;32463;48.298;11.620;2023-06-24T11:22:33;5.23;;;3.50;;
46723;SDS011;32463;48.298;11.620;2023-06-24T11:24:59;3.85;;;3.17;;
46723;SDS011;32463;48.298;11.620;2023-06-24T11:27:26;6.93;;;3.30;;
46723;SDS011;32463;48.298;11.620;2023-06-24T11:29:55;4.50;;;3.17;;
46723;SDS011;32463;48.298;11.620;2023-06-24T11:32:23;4.93;;;3.38;;
46723;SDS011;32463;48.298;11.620;2023-06-24T11:34:50;4.03;;;3.20;;
46723;SDS011;32463;48.298;11.620;2023-06-24T11:37:17;4.93;;;3.17;;
46723;SDS011;32463;48.298;11.620;2023-06-24T11:39:45;4.75;;;2.92;;
46723;SDS011;32463;48.298;11.620;2023-06-24T11:42:26;4.85;;;3.40;;
46723;SDS011;32463;48.298;11.620;2023-06-24T11:44:56;7.22;;;3.28;;
46723;SDS011;32463;48.298;11.620;2023-06-24T11:47:25;4.40;;;2.65;;
46723;SDS011;32463;48.298;11.620;2023-06-24T11:49:52;3.63;;;2.50;;
46723;SDS011;32463;48.298;11.620;2023-06-24T11:52:55;5.15;;;2.83;;
46723;SDS011;32463;48.298;11.620;2023-06-24T11:55:18;3.00;;;2.40;;
46723;SDS011;32463;48.298;11.620;2023-06-24T11:57:50;3.20;;;2.40;;
46723;SDS011;32463;48.298;11.620;2023-06-24T12:00:27;5.13;;;2.95;;
46723;SDS011;32463;48.298;11.620;2023-06-24T12:02:58;4.28;;;2.60;;
46723;SDS011;32463;48.298;11.620;2023-06-24T12:05:35;4.30;;;2.53;;
46723;SDS011;32463;48.298;11.620;2023-06-24T12:08:04;4.57;;;2.75;;
46723;SDS011;32463;48.298;11.620;2023-06-24T12:10:33;4.05;;;2.95;;
46723;SDS011;32463;48.298;11.620;2023-06-24T12:13:00;4.53;;;2.80;;
46723;SDS011;32463;48.298;11.620;2023-06-24T12:15:28;4.57;;;2.72;;
46723;SDS011;32463;48.298;11.620;2023-06-24T12:17:55;6.18;;;3.40;;
46723;SDS011;32463;48.298;11.620;2023-06-24T12:20:21;4.90;;;3.55;;
46723;SDS011;32463;48.298;11.620;2023-06-24T12:22:50;4.03;;;2.85;;
46723;SDS011;32463;48.298;11.620;2023-06-24T12:25:17;3.70;;;2.72;;
46723;SDS011;32463;48.298;11.620;2023-06-24T12:27:44;3.60;;;3.00;;
46723;SDS011;32463;48.298;11.620;2023-06-24T12:30:11;3.30;;;2.70;;
46723;SDS011;32463;48.298;11.620;2023-06-24T12:32:38;3.10;;;2.40;;
46723;SDS011;32463;48.298;11.620;2023-06-24T12:35:05;3.17;;;2.60;;
46723;SDS011;32463;48.298;11.620;2023-06-24T12:37:34;4.05;;;2.60;;
46723;SDS011;32463;48.298;11.620;2023-06-24T12:40:00;7.82;;;3.05;;
46723;SDS011;32463;48.298;11.620;2023-06-24T12:42:27;3.17;;;2.53;;
46723;SDS011;32463;48.298;11.620;2023-06-24T12:44:54;3.97;;;2.70;;
46723;SDS011;32463;48.298;11.620;2023-06-24T12:47:21;3.50;;;2.45;;
46723;SDS011;32463;48.298;11.620;2023-06-24T12:49:48;4.10;;;2.90;;
46723;SDS011;32463;48.298;11.620;2023-06-24T12:52:15;4.63;;;2.90;;
46723;SDS011;32463;48.298;11.620;2023-06-24T12:54:41;4.35;;;3.10;;
46723;SDS011;32463;48.298;11.620;2023-06-24T12:57:08;4.47;;;2.70;;
46723;SDS011;32463;48.298;11.620;2023-06-24T12:59:35;4.00;;;3.00;;
46723;SDS011;32463;48.298;11.620;2023-06-24T13:02:01;4.05;;;2.90;;
46723;SDS011;32463;48.298;11.620;2023-06-24T13:04:28;3.47;;;2.95;;
46723;SDS011;32463;48.298;11.620;2023-06-24T13:06:55;3.78;;;2.72;;
46723;SDS011;32463;48.298;11.620;2023-06-24T13:09:23;4.20;;;3.00;;
46723;SDS011;32463;48.298;11.620;2023-06-24T13:11:49;4.88;;;3.00;;
46723;SDS011;32463;48.298;11.620;2023-06-24T13:14:16;5.28;;;2.75;;
46723;SDS011;32463;48.298;11.620;2023-06-24T13:16:43;4.85;;;2.95;;
46723;SDS011;32463;48.298;11.620;2023-06-24T13:19:09;3.60;;;2.95;;
46723;SDS011;32463;48.298;11.620;2023-06-24T13:21:36;3.40;;;2.50;;
46723;SDS011;32463;48.298;11.620;2023-06-24T13:24:02;3.60;;;2.70;;
46723;SDS011;32463;48.298;11.620;2023-06-24T13:26:29;5.70;;;2.50;;
46723;SDS011;32463;48.298;11.620;2023-06-24T13:28:55;4.28;;;2.60;;
46723;SDS011;32463;48.298;11.620;2023-06-24T13:31:21;4.05;;;2.88;;
46723;SDS011;32463;48.298;11.620;2023-06-24T13:33:48;3.45;;;2.83;;
46723;SDS011;32463;48.298;11.620;2023-06-24T13:36:30;4.05;;;2.70;;
46723;SDS011;32463;48.298;11.620;2023-06-24T13:39:05;3.08;;;2.63;;
46723;SDS011;32463;48.298;11.620;2023-06-24T13:41:34;16.50;;;14.77;;
46723;SDS011;32463;48.298;11.620;2023-06-24T13:44:04;4.78;;;3.60;;
46723;SDS011;32463;48.298;11.620;2023-06-24T13:46:31;4.63;;;3.10;;
46723;SDS011;32463;48.298;11.620;2023-06-24T13:48:58;4.25;;;3.17;;
46723;SDS011;32463;48.298;11.620;2023-06-24T13:51:25;8.05;;;2.90;;
46723;SDS011;32463;48.298;11.620;2023-06-24T13:53:52;3.90;;;2.80;;
46723;SDS011;32463;48.298;11.620;2023-06-24T13:56:20;5.22;;;3.00;;
46723;SDS011;32463;48.298;11.620;2023-06-24T13:58:47;3.10;;;2.58;;
46723;SDS011;32463;48.298;11.620;2023-06-24T14:01:14;3.53;;;2.75;;
46723;SDS011;32463;48.298;11.620;2023-06-24T14:03:40;4.55;;;2.25;;
46723;SDS011;32463;48.298;11.620;2023-06-24T14:06:07;3.47;;;2.55;;
46723;SDS011;32463;48.298;11.620;2023-06-24T14:08:34;4.43;;;3.08;;
46723;SDS011;32463;48.298;11.620;2023-06-24T14:11:02;2.78;;;2.40;;
46723;SDS011;32463;48.298;11.620;2023-06-24T14:13:29;4.05;;;2.80;;
46723;SDS011;32463;48.298;11.620;2023-06-24T14:15:56;5.30;;;3.15;;
46723;SDS011;32463;48.298;11.620;2023-06-24T14:18:22;3.75;;;2.95;;
46723;SDS011;32463;48.298;11.620;2023-06-24T14:20:50;3.50;;;2.58;;
46723;SDS011;32463;48.298;11.620;2023-06-24T14:23:16;3.50;;;2.60;;
46723;SDS011;32463;48.298;11.620;2023-06-24T14:25:43;3.63;;;2.90;;
46723;SDS011;32463;48.298;11.620;2023-06-24T14:28:09;3.92;;;3.10;;
46723;SDS011;32463;48.298;11.620;2023-06-24T14:30:36;2.97;;;2.45;;
46723;SDS011;32463;48.298;11.620;2023-06-24T14:33:03;3.20;;;2.50;;
46723;SDS011;32463;48.298;11.620;2023-06-24T14:35:29;3.83;;;2.88;;
46723;SDS011;32463;48.298;11.620;2023-06-24T14:37:56;3.10;;;2.58;;
46723;SDS011;32463;48.298;11.620;2023-06-24T14:40:23;3.80;;;2.75;;
46723;SDS011;32463;48.298;11.620;2023-06-24T14:42:49;4.53;;;2.83;;
46723;SDS011;32463;48.298;11.620;2023-06-24T14:45:15;3.60;;;2.63;;
46723;SDS011;32463;48.298;11.620;2023-06-24T14:47:42;3.80;;;2.95;;
46723;SDS011;32463;48.298;11.620;2023-06-24T14:50:09;3.75;;;2.50;;
46723;SDS011;32463;48.298;11.620;2023-06-24T14:52:36;3.20;;;2.67;;